createdAt,value
2018-11-02T00:00:20.955Z,69.78
2018-11-02T00:01:20.890Z,69.88
2018-11-02T00:02:20.883Z,70.09
2018-11-02T00:03:20.872Z,69.88
2018-11-02T00:04:20.854Z,69.98
2018-11-02T00:05:20.850Z,70.09
2018-11-02T00:06:20.899Z,69.88
2018-11-02T00:07:20.823Z,70.09
2018-11-02T00:08:20.815Z,69.88
2018-11-02T00:09:20.817Z,69.85
2018-11-02T00:10:20.789Z,69.88
2018-11-02T00:11:20.777Z,69.78
2018-11-02T00:12:20.835Z,69.88
2018-11-02T00:13:20.760Z,69.58
2018-11-02T00:14:20.743Z,69.92
2018-11-02T00:15:20.732Z,69.78
2018-11-02T00:16:20.720Z,69.88
2018-11-02T00:17:20.711Z,69.88
2018-11-02T00:18:20.700Z,69.88
2018-11-02T00:19:20.692Z,69.88
2018-11-02T00:20:20.683Z,69.61
2018-11-02T00:21:20.681Z,70.09
2018-11-02T00:22:20.654Z,69.88
2018-11-02T00:23:20.643Z,69.81
2018-11-02T00:24:20.633Z,70.73
2018-11-02T00:25:20.621Z,71.35
2018-11-02T00:26:20.633Z,71.25
2018-11-02T00:27:20.605Z,71.45
2018-11-02T00:28:20.624Z,71.25
2018-11-02T00:29:20.578Z,71.25
2018-11-02T00:30:20.583Z,71.08
2018-11-02T00:31:20.555Z,71.17
2018-11-02T00:32:20.606Z,71.14
2018-11-02T00:33:20.533Z,71.66
2018-11-02T00:34:20.523Z,71.14
2018-11-02T00:35:20.509Z,71.38
2018-11-02T00:36:20.498Z,71.38
2018-11-02T00:37:20.491Z,71.55
2018-11-02T00:38:20.477Z,70.33
2018-11-02T00:39:20.465Z,70.63
2018-11-02T00:40:20.492Z,70.36
2018-11-02T00:41:20.444Z,70.84
2018-11-02T00:42:20.432Z,70.94
2018-11-02T00:43:20.419Z,70.73
2018-11-02T00:44:20.442Z,71.08
2018-11-02T00:45:20.398Z,71.38
2018-11-02T00:46:20.386Z,71.38
2018-11-02T00:47:20.376Z,70.46
2018-11-02T00:48:20.407Z,71.55
2018-11-02T00:49:20.356Z,71.35
2018-11-02T00:50:20.349Z,71.17
2018-11-02T00:51:20.331Z,70.53
2018-11-02T00:52:20.346Z,69.61
2018-11-02T00:53:20.310Z,69.92
2018-11-02T00:54:20.349Z,69.06
2018-11-02T00:55:20.292Z,69.17
2018-11-02T00:56:20.298Z,69.17
2018-11-02T00:57:20.266Z,68.52
2018-11-02T00:58:20.309Z,68.73
2018-11-02T00:59:20.247Z,68.52
2018-11-02T01:00:20.286Z,68.52
2018-11-02T01:01:20.222Z,68.32
2018-11-02T01:02:20.256Z,68.52
2018-11-02T01:03:20.221Z,69.24
2018-11-02T01:04:20.262Z,69.27
2018-11-02T01:05:20.219Z,69.17
2018-11-02T01:06:20.228Z,69.27
2018-11-02T01:07:20.164Z,69.92
2018-11-02T01:08:20.177Z,69.61
2018-11-02T01:09:20.171Z,69.81
2018-11-02T01:10:20.119Z,70.53
2018-11-02T01:11:20.111Z,70.43
2018-11-02T01:12:20.116Z,70.77
2018-11-02T01:13:20.085Z,70.22
2018-11-02T01:14:20.073Z,70.36
2018-11-02T01:15:20.064Z,71.79
2018-11-02T01:16:20.050Z,70.67
2018-11-02T01:17:20.047Z,71.21
2018-11-02T01:18:20.029Z,71.31
2018-11-02T01:19:20.019Z,70.56
2018-11-02T01:20:20.009Z,70.15
2018-11-02T01:21:19.993Z,70.22
2018-11-02T01:22:19.987Z,70.05
2018-11-02T01:23:19.972Z,69.84
2018-11-02T01:24:19.957Z,69.92
2018-11-02T01:25:19.949Z,69.81
2018-11-02T01:26:19.937Z,70.22
2018-11-02T01:27:19.923Z,69.20
2018-11-02T01:28:19.926Z,69.30
2018-11-02T01:29:19.909Z,69.51
2018-11-02T01:30:19.889Z,69.40
2018-11-02T01:31:19.875Z,69.06
2018-11-02T01:32:19.866Z,68.86
2018-11-02T01:33:19.858Z,68.55
2018-11-02T01:34:19.847Z,69.06
2018-11-02T01:35:19.842Z,69.10
2018-11-02T01:36:19.818Z,69.30
2018-11-02T01:37:19.806Z,69.51
2018-11-02T01:38:19.796Z,70.02
2018-11-02T01:39:19.788Z,70.25
2018-11-02T01:40:19.774Z,71.62
2018-11-02T01:41:19.760Z,71.41
2018-11-02T01:42:19.749Z,71.86
2018-11-02T01:43:19.738Z,72.27
2018-11-02T01:44:19.729Z,73.02
2018-11-02T01:45:19.721Z,73.22
2018-11-02T01:46:19.707Z,73.12
2018-11-02T01:47:19.693Z,73.22
2018-11-02T01:48:19.681Z,73.74
2018-11-02T01:49:19.670Z,73.53
2018-11-02T01:50:19.658Z,73.84
2018-11-02T01:51:19.647Z,73.88
2018-11-02T01:52:19.640Z,73.53
2018-11-02T01:53:19.623Z,73.67
2018-11-02T01:54:19.613Z,73.74
2018-11-02T01:55:19.600Z,73.63
2018-11-02T01:56:19.592Z,72.92
2018-11-02T01:57:19.576Z,72.92
2018-11-02T01:58:19.562Z,73.22
2018-11-02T01:59:19.553Z,73.19
2018-11-02T02:00:19.547Z,72.82
2018-11-02T02:01:19.540Z,73.19
2018-11-02T02:02:19.525Z,72.88
2018-11-02T02:03:19.507Z,73.22
2018-11-02T02:04:19.493Z,72.71
2018-11-02T02:05:19.485Z,73.46
2018-11-02T02:06:19.470Z,73.77
2018-11-02T02:07:19.459Z,73.05
2018-11-02T02:08:19.448Z,73.36
2018-11-02T02:09:19.437Z,73.57
2018-11-02T02:10:19.424Z,73.67
2018-11-02T02:11:19.412Z,73.57
2018-11-02T02:12:19.406Z,73.67
2018-11-02T02:13:19.517Z,73.67
2018-11-02T02:14:19.381Z,73.57
2018-11-02T02:15:19.370Z,73.46
2018-11-02T02:16:19.353Z,73.12
2018-11-02T02:17:19.343Z,72.92
2018-11-02T02:18:19.331Z,72.92
2018-11-02T02:19:19.319Z,72.41
2018-11-02T02:20:19.307Z,71.86
2018-11-02T02:21:19.295Z,71.75
2018-11-02T02:22:19.283Z,71.96
2018-11-02T02:23:19.275Z,71.86
2018-11-02T02:24:19.265Z,70.94
2018-11-02T02:25:19.255Z,71.35
2018-11-02T02:26:19.244Z,71.21
2018-11-02T02:27:19.227Z,71.24
2018-11-02T02:28:19.243Z,71.35
2018-11-02T02:29:19.206Z,71.55
2018-11-02T02:30:19.225Z,71.75
2018-11-02T02:31:19.209Z,71.45
2018-11-02T02:32:19.174Z,72.20
2018-11-02T02:33:19.163Z,71.35
2018-11-02T02:34:19.146Z,71.86
2018-11-02T02:35:19.136Z,71.11
2018-11-02T02:36:19.124Z,71.00
2018-11-02T02:37:19.116Z,70.39
2018-11-02T02:38:19.105Z,70.29
2018-11-02T02:39:19.091Z,70.29
2018-11-02T02:40:19.078Z,70.08
2018-11-02T02:41:19.080Z,69.75
2018-11-02T02:42:19.055Z,69.95
2018-11-02T02:43:19.043Z,69.98
2018-11-02T02:44:19.035Z,70.91
2018-11-02T02:45:19.019Z,70.70
2018-11-02T02:46:19.013Z,70.83
2018-11-02T02:47:18.996Z,71.00
2018-11-02T02:48:18.994Z,71.14
2018-11-02T02:49:18.975Z,70.59
2018-11-02T02:50:18.963Z,71.11
2018-11-02T02:51:18.954Z,71.66
2018-11-02T02:52:18.940Z,71.14
2018-11-02T02:53:18.932Z,71.75
2018-11-02T02:54:18.931Z,72.61
2018-11-02T02:55:18.908Z,73.22
2018-11-02T02:56:18.903Z,73.12
2018-11-02T02:57:18.888Z,73.12
2018-11-02T02:58:18.880Z,73.88
2018-11-02T02:59:18.865Z,73.88
2018-11-02T03:00:18.852Z,73.77
2018-11-02T03:01:18.841Z,73.36
2018-11-02T03:02:18.829Z,73.46
2018-11-02T03:03:18.819Z,74.22
2018-11-02T03:04:18.842Z,74.63
2018-11-02T03:05:18.799Z,74.63
2018-11-02T03:06:18.785Z,74.63
2018-11-02T03:07:18.776Z,75.65
2018-11-02T03:08:18.764Z,75.14
2018-11-02T03:09:18.754Z,75.35
2018-11-02T03:10:18.830Z,75.14
2018-11-02T03:11:18.814Z,74.42
2018-11-02T03:12:18.724Z,73.46
2018-11-02T03:13:18.708Z,73.67
2018-11-02T03:14:18.699Z,73.36
2018-11-02T03:15:18.688Z,72.82
2018-11-02T03:16:18.675Z,73.16
2018-11-02T03:17:18.668Z,72.85
2018-11-02T03:18:18.691Z,72.30
2018-11-02T03:19:18.642Z,72.30
2018-11-02T03:20:18.638Z,71.89
2018-11-02T03:21:18.642Z,71.75
2018-11-02T03:22:18.619Z,71.86
2018-11-02T03:23:18.597Z,72.20
2018-11-02T03:24:18.586Z,73.33
2018-11-02T03:25:18.574Z,72.65
2018-11-02T03:26:18.564Z,71.99
2018-11-02T03:27:18.553Z,73.22
2018-11-02T03:28:18.545Z,73.46
2018-11-02T03:29:18.533Z,73.36
2018-11-02T03:30:18.523Z,73.22
2018-11-02T03:31:18.513Z,73.77
2018-11-02T03:32:18.502Z,73.98
2018-11-02T03:33:18.490Z,74.53
2018-11-02T03:34:18.476Z,74.63
2018-11-02T03:35:18.462Z,74.32
2018-11-02T03:36:18.449Z,75.25
2018-11-02T03:37:18.439Z,74.93
2018-11-02T03:38:18.433Z,74.32
2018-11-02T03:39:18.420Z,73.91
2018-11-02T03:40:18.419Z,73.05
2018-11-02T03:41:18.397Z,73.88
2018-11-02T03:42:18.382Z,73.88
2018-11-02T03:43:18.372Z,73.57
2018-11-02T03:44:18.358Z,73.67
2018-11-02T03:45:18.351Z,73.88
2018-11-02T03:46:18.347Z,74.29
2018-11-02T03:47:18.325Z,73.70
2018-11-02T03:48:18.316Z,74.01
2018-11-02T03:49:18.303Z,73.91
2018-11-02T03:50:18.292Z,74.29
2018-11-02T03:51:18.286Z,74.01
2018-11-02T03:52:18.270Z,73.57
2018-11-02T03:53:18.259Z,74.08
2018-11-02T03:54:18.252Z,74.39
2018-11-02T03:55:18.245Z,73.80
2018-11-02T03:56:19.269Z,73.67
2018-11-02T03:57:18.212Z,73.98
2018-11-02T03:58:18.203Z,73.98
2018-11-02T03:59:18.191Z,74.18
2018-11-02T04:00:18.178Z,73.57
2018-11-02T04:01:18.171Z,73.67
2018-11-02T04:02:18.156Z,73.57
2018-11-02T04:03:18.145Z,73.67
2018-11-02T04:04:18.133Z,73.88
2018-11-02T04:05:18.123Z,74.08
2018-11-02T04:06:18.136Z,74.32
2018-11-02T04:07:18.119Z,74.01
2018-11-02T04:08:18.090Z,73.80
2018-11-02T04:09:18.102Z,73.91
2018-11-02T04:10:18.066Z,73.77
2018-11-02T04:11:18.056Z,73.26
2018-11-02T04:12:18.043Z,72.95
2018-11-02T04:13:18.031Z,72.95
2018-11-02T04:14:18.022Z,72.54
2018-11-02T04:15:18.009Z,72.30
2018-11-02T04:16:18.006Z,73.33
2018-11-02T04:17:17.988Z,72.85
2018-11-02T04:18:17.978Z,72.44
2018-11-02T04:19:17.964Z,72.30
2018-11-02T04:20:17.955Z,71.89
2018-11-02T04:21:17.940Z,71.38
2018-11-02T04:22:17.934Z,71.96
2018-11-02T04:23:17.922Z,72.41
2018-11-02T04:24:17.912Z,72.41
2018-11-02T04:25:17.905Z,73.22
2018-11-02T04:26:17.887Z,72.85
2018-11-02T04:27:17.874Z,73.26
2018-11-02T04:28:17.863Z,73.05
2018-11-02T04:29:17.853Z,73.26
2018-11-02T04:30:17.840Z,73.16
2018-11-02T04:31:17.828Z,72.20
2018-11-02T04:32:17.817Z,72.10
2018-11-02T04:33:17.813Z,71.79
2018-11-02T04:34:17.795Z,71.66
2018-11-02T04:35:17.786Z,71.89
2018-11-02T04:36:17.778Z,71.24
2018-11-02T04:37:17.760Z,71.35
2018-11-02T04:38:17.749Z,71.75
2018-11-02T04:39:17.748Z,71.24
2018-11-02T04:40:17.726Z,71.48
2018-11-02T04:41:17.719Z,72.30
2018-11-02T04:42:17.712Z,73.46
2018-11-02T04:43:17.701Z,72.44
2018-11-02T04:44:17.683Z,72.20
2018-11-02T04:45:17.671Z,72.41
2018-11-02T04:46:17.664Z,72.44
2018-11-02T04:47:17.673Z,72.65
2018-11-02T04:48:17.670Z,71.89
2018-11-02T04:49:17.634Z,72.61
2018-11-02T04:50:17.623Z,72.82
2018-11-02T04:51:17.809Z,73.16
2018-11-02T04:52:17.596Z,73.36
2018-11-02T04:53:17.584Z,72.85
2018-11-02T04:54:17.581Z,73.36
2018-11-02T04:55:17.561Z,73.36
2018-11-02T04:56:17.551Z,73.26
2018-11-02T04:57:17.542Z,73.16
2018-11-02T04:58:17.530Z,73.16
2018-11-02T04:59:17.516Z,72.95
2018-11-02T05:00:17.508Z,73.36
2018-11-02T05:01:17.497Z,73.36
2018-11-02T05:02:17.484Z,73.16
2018-11-02T05:03:17.475Z,72.95
2018-11-02T05:04:17.463Z,73.36
2018-11-02T05:05:17.453Z,73.26
2018-11-02T05:06:17.439Z,73.70
2018-11-02T05:07:17.427Z,73.57
2018-11-02T05:08:17.419Z,73.80
2018-11-02T05:09:17.416Z,74.53
2018-11-02T05:10:17.411Z,74.12
2018-11-02T05:11:17.429Z,74.12
2018-11-02T05:12:17.371Z,74.01
2018-11-02T05:13:17.366Z,74.32
2018-11-02T05:14:17.358Z,74.53
2018-11-02T05:15:17.339Z,74.73
2018-11-02T05:16:17.327Z,75.65
2018-11-02T05:17:17.319Z,75.18
2018-11-02T05:18:17.310Z,75.69
2018-11-02T05:19:17.295Z,75.48
2018-11-02T05:20:17.288Z,75.18
2018-11-02T05:21:17.402Z,75.07
2018-11-02T05:22:17.267Z,75.25
2018-11-02T05:23:17.252Z,74.73
2018-11-02T05:24:17.241Z,74.73
2018-11-02T05:25:17.230Z,74.32
2018-11-02T05:26:17.219Z,74.01
2018-11-02T05:27:17.210Z,73.91
2018-11-02T05:28:17.227Z,73.36
2018-11-02T05:29:17.186Z,74.12
2018-11-02T05:30:17.180Z,73.91
2018-11-02T05:31:17.166Z,74.53
2018-11-02T05:32:17.154Z,74.42
2018-11-02T05:33:17.144Z,75.45
2018-11-02T05:34:17.134Z,74.35
2018-11-02T05:35:17.129Z,75.69
2018-11-02T05:36:17.110Z,75.69
2018-11-02T05:37:17.101Z,75.69
2018-11-02T05:38:17.095Z,75.38
2018-11-02T05:39:17.095Z,75.59
2018-11-02T05:40:17.066Z,75.28
2018-11-02T05:41:17.055Z,75.28
2018-11-02T05:42:17.043Z,75.07
2018-11-02T05:43:17.036Z,75.69
2018-11-02T05:44:17.024Z,75.59
2018-11-02T05:45:17.012Z,75.59
2018-11-02T05:46:17.006Z,75.38
2018-11-02T05:47:17.134Z,75.69
2018-11-02T05:48:16.980Z,75.48
2018-11-02T05:49:16.973Z,75.59
2018-11-02T05:50:16.965Z,75.18
2018-11-02T05:51:16.947Z,75.59
2018-11-02T05:52:16.936Z,75.38
2018-11-02T05:53:16.926Z,75.79
2018-11-02T05:54:17.090Z,76.31
2018-11-02T05:55:16.905Z,75.69
2018-11-02T05:56:16.895Z,75.48
2018-11-02T05:57:16.882Z,75.35
2018-11-02T05:58:16.873Z,74.32
2018-11-02T05:59:16.895Z,74.12
2018-11-02T06:00:16.852Z,74.73
2018-11-02T06:01:16.898Z,75.25
2018-11-02T06:02:16.827Z,74.53
2018-11-02T06:03:16.819Z,75.35
2018-11-02T06:04:16.810Z,75.55
2018-11-02T06:05:16.794Z,75.65
2018-11-02T06:06:16.786Z,74.87
2018-11-02T06:07:16.826Z,75.28
2018-11-02T06:08:16.763Z,74.97
2018-11-02T06:09:16.753Z,75.69
2018-11-02T06:10:16.744Z,75.38
2018-11-02T06:11:16.729Z,74.67
2018-11-02T06:12:16.718Z,75.18
2018-11-02T06:13:16.715Z,75.69
2018-11-02T06:14:16.700Z,74.67
2018-11-02T06:15:16.691Z,75.79
2018-11-02T06:16:16.680Z,75.48
2018-11-02T06:17:16.668Z,75.38
2018-11-02T06:18:16.655Z,75.18
2018-11-02T06:19:16.643Z,75.18
2018-11-02T06:20:16.632Z,74.97
2018-11-02T06:21:16.624Z,75.48
2018-11-02T06:22:16.612Z,75.69
2018-11-02T06:23:16.598Z,75.59
2018-11-02T06:24:16.698Z,74.97
2018-11-02T06:25:16.577Z,74.76
2018-11-02T06:26:16.571Z,75.38
2018-11-02T06:27:16.630Z,75.07
2018-11-02T06:28:16.544Z,75.48
2018-11-02T06:29:16.537Z,74.76
2018-11-02T06:30:16.531Z,74.12
2018-11-02T06:31:16.514Z,73.91
2018-11-02T06:32:16.502Z,73.88
2018-11-02T06:33:16.491Z,74.12
2018-11-02T06:34:16.486Z,74.12
2018-11-02T06:35:16.469Z,73.91
2018-11-02T06:36:16.459Z,74.32
2018-11-02T06:37:16.448Z,74.53
2018-11-02T06:38:16.471Z,74.53
2018-11-02T06:39:16.427Z,75.25
2018-11-02T06:40:16.415Z,75.25
2018-11-02T06:41:16.411Z,75.14
2018-11-02T06:42:16.393Z,74.84
2018-11-02T06:43:16.382Z,75.48
2018-11-02T06:44:16.375Z,74.67
2018-11-02T06:45:16.365Z,75.28
2018-11-02T06:46:16.363Z,75.25
2018-11-02T06:47:16.358Z,75.38
2018-11-02T06:48:16.368Z,75.79
2018-11-02T06:49:16.368Z,75.18
2018-11-02T06:50:16.311Z,75.45
2018-11-02T06:51:16.311Z,74.42
2018-11-02T06:52:16.313Z,74.01
2018-11-02T06:53:16.316Z,73.26
2018-11-02T06:54:16.262Z,73.16
2018-11-02T06:55:16.258Z,73.26
2018-11-02T06:56:16.243Z,72.85
2018-11-02T06:57:16.235Z,73.16
2018-11-02T06:58:16.225Z,73.16
2018-11-02T06:59:16.341Z,73.26
2018-11-02T07:00:16.243Z,73.05
2018-11-02T07:01:16.191Z,73.16
2018-11-02T07:02:16.179Z,73.02
2018-11-02T07:03:16.166Z,72.07
2018-11-02T07:04:16.161Z,71.96
2018-11-02T07:05:16.146Z,72.37
2018-11-02T07:06:16.132Z,72.50
2018-11-02T07:07:16.189Z,72.17
2018-11-02T07:08:16.153Z,71.86
2018-11-02T07:09:16.101Z,72.30
2018-11-02T07:10:16.091Z,73.33
2018-11-02T07:11:16.080Z,73.33
2018-11-02T07:12:16.076Z,73.33
2018-11-02T07:13:16.056Z,73.22
2018-11-02T07:14:16.050Z,73.57
2018-11-02T07:15:16.037Z,73.77
2018-11-02T07:16:16.034Z,73.74
2018-11-02T07:17:16.014Z,73.33
2018-11-02T07:18:16.005Z,72.30
2018-11-02T07:19:15.992Z,71.72
2018-11-02T07:20:16.007Z,70.80
2018-11-02T07:21:15.980Z,71.31
2018-11-02T07:22:15.961Z,71.41
2018-11-02T07:23:15.948Z,71.69
2018-11-02T07:24:15.937Z,70.15
2018-11-02T07:25:16.023Z,69.64
2018-11-02T07:26:15.915Z,70.25
2018-11-02T07:27:15.903Z,69.92
2018-11-02T07:28:15.892Z,69.92
2018-11-02T07:29:15.894Z,70.36
2018-11-02T07:30:15.893Z,70.56
2018-11-02T07:31:15.863Z,71.52
2018-11-02T07:32:15.854Z,71.21
2018-11-02T07:33:15.837Z,70.46
2018-11-02T07:34:15.898Z,70.25
2018-11-02T07:35:15.814Z,70.02
2018-11-02T07:36:15.802Z,70.22
2018-11-02T07:37:15.796Z,70.22
2018-11-02T07:38:15.783Z,68.96
2018-11-02T07:39:15.775Z,68.83
2018-11-02T07:40:15.761Z,68.93
2018-11-02T07:41:15.746Z,68.42
2018-11-02T07:42:15.735Z,67.54
2018-11-02T07:43:15.726Z,66.05
2018-11-02T07:44:15.716Z,65.43
2018-11-02T07:45:15.705Z,65.30
2018-11-02T07:46:15.688Z,64.56
2018-11-02T07:47:15.677Z,64.76
2018-11-02T07:48:15.668Z,64.35
2018-11-02T07:49:15.688Z,63.53
2018-11-02T07:50:15.650Z,63.30
2018-11-02T07:51:15.637Z,63.27
2018-11-02T07:52:15.624Z,63.17
2018-11-02T07:53:15.612Z,62.87
2018-11-02T07:54:15.600Z,62.43
2018-11-02T07:55:15.589Z,62.73
2018-11-02T07:56:15.578Z,61.30
2018-11-02T07:57:15.566Z,63.07
2018-11-02T07:58:15.554Z,62.63
2018-11-02T07:59:15.552Z,61.51
2018-11-02T08:00:15.535Z,61.18
2018-11-02T08:01:15.521Z,60.64
2018-11-02T08:02:15.515Z,61.15
2018-11-02T08:03:15.500Z,60.44
2018-11-02T08:04:15.489Z,60.61
2018-11-02T08:05:15.477Z,59.90
2018-11-02T08:06:15.467Z,60.00
2018-11-02T08:07:15.454Z,59.06
2018-11-02T08:08:15.450Z,58.65
2018-11-02T08:09:15.438Z,58.93
2018-11-02T08:10:15.426Z,57.98
2018-11-02T08:11:15.461Z,57.98
2018-11-02T08:12:15.404Z,58.09
2018-11-02T08:13:15.392Z,57.25
2018-11-02T08:14:15.392Z,57.28
2018-11-02T08:15:15.369Z,57.98
2018-11-02T08:16:15.361Z,57.78
2018-11-02T08:17:15.351Z,56.74
2018-11-02T08:18:15.334Z,57.45
2018-11-02T08:19:15.320Z,56.34
2018-11-02T08:20:15.308Z,57.28
2018-11-02T08:21:15.297Z,57.37
2018-11-02T08:22:15.287Z,57.55
2018-11-02T08:23:15.275Z,57.35
2018-11-02T08:24:15.265Z,56.71
2018-11-02T08:25:15.256Z,56.39
2018-11-02T08:26:15.240Z,54.94
2018-11-02T08:27:15.236Z,55.34
2018-11-02T08:28:15.219Z,55.14
2018-11-02T08:29:15.207Z,54.33
2018-11-02T08:30:15.196Z,55.14
2018-11-02T08:31:15.196Z,54.81
2018-11-02T08:32:15.326Z,55.12
2018-11-02T08:33:15.164Z,54.51
2018-11-02T08:34:15.151Z,54.20
2018-11-02T08:35:15.146Z,54.71
2018-11-02T08:36:15.132Z,54.84
2018-11-02T08:37:15.122Z,55.24
2018-11-02T08:38:15.117Z,55.21
2018-11-02T08:39:15.099Z,54.63
2018-11-02T08:40:15.086Z,54.53
2018-11-02T08:41:15.074Z,54.61
2018-11-02T08:42:15.064Z,54.48
2018-11-02T08:43:15.053Z,54.10
2018-11-02T08:44:15.041Z,55.14
2018-11-02T08:45:15.037Z,55.88
2018-11-02T08:46:15.024Z,56.23
2018-11-02T08:47:15.017Z,56.84
2018-11-02T08:48:15.007Z,57.37
2018-11-02T08:49:14.986Z,57.78
2018-11-02T08:50:14.980Z,58.25
2018-11-02T08:51:14.967Z,58.63
2018-11-02T08:52:15.035Z,59.16
2018-11-02T08:53:14.944Z,58.63
2018-11-02T08:54:14.934Z,57.78
2018-11-02T08:55:14.921Z,57.86
2018-11-02T08:56:14.913Z,56.92
2018-11-02T08:57:14.902Z,56.39
2018-11-02T08:58:15.060Z,55.90
2018-11-02T08:59:14.962Z,55.57
2018-11-02T09:00:15.038Z,55.88
2018-11-02T09:01:14.864Z,55.75
2018-11-02T09:02:14.847Z,55.45
2018-11-02T09:03:14.858Z,54.61
2018-11-02T09:04:14.825Z,55.04
2018-11-02T09:05:14.986Z,55.67
2018-11-02T09:06:14.802Z,55.85
2018-11-02T09:07:14.792Z,54.51
2018-11-02T09:08:14.793Z,54.61
2018-11-02T09:09:14.769Z,54.51
2018-11-02T09:10:14.756Z,54.48
2018-11-02T09:11:14.746Z,54.38
2018-11-02T09:12:14.857Z,54.81
2018-11-02T09:13:14.724Z,55.14
2018-11-02T09:14:14.712Z,55.21
2018-11-02T09:15:14.707Z,54.51
2018-11-02T09:16:14.689Z,54.51
2018-11-02T09:17:14.677Z,54.53
2018-11-02T09:18:14.669Z,55.72
2018-11-02T09:19:14.667Z,55.12
2018-11-02T09:20:14.644Z,54.88
2018-11-02T09:21:14.633Z,53.97
2018-11-02T09:22:14.623Z,54.58
2018-11-02T09:23:14.611Z,54.08
2018-11-02T09:24:14.599Z,54.28
2018-11-02T09:25:14.587Z,54.20
2018-11-02T09:26:14.575Z,54.81
2018-11-02T09:27:14.615Z,55.14
2018-11-02T09:28:14.560Z,55.88
2018-11-02T09:29:14.547Z,56.61
2018-11-02T09:30:14.567Z,56.61
2018-11-02T09:31:14.517Z,57.22
2018-11-02T09:32:14.507Z,56.84
2018-11-02T09:33:14.500Z,57.25
2018-11-02T09:34:14.484Z,57.76
2018-11-02T09:35:14.475Z,57.76
2018-11-02T09:36:14.466Z,57.86
2018-11-02T09:37:14.455Z,58.39
2018-11-02T09:38:14.439Z,58.29
2018-11-02T09:39:14.431Z,58.36
2018-11-02T09:40:14.470Z,58.06
2018-11-02T09:41:14.403Z,58.06
2018-11-02T09:42:14.390Z,58.06
2018-11-02T09:43:14.380Z,58.39
2018-11-02T09:44:14.374Z,58.63
2018-11-02T09:45:14.357Z,59.33
2018-11-02T09:46:14.346Z,59.44
2018-11-02T09:47:14.333Z,59.44
2018-11-02T09:48:14.322Z,59.64
2018-11-02T09:49:14.317Z,59.33
2018-11-02T09:50:14.311Z,58.93
2018-11-02T09:51:14.351Z,59.33
2018-11-02T09:52:14.276Z,59.03
2018-11-02T09:53:14.266Z,58.70
2018-11-02T09:54:14.255Z,58.36
2018-11-02T09:55:14.247Z,58.16
2018-11-02T09:56:14.232Z,57.76
2018-11-02T09:57:14.220Z,58.16
2018-11-02T09:58:14.210Z,58.36
2018-11-02T09:59:14.200Z,58.67
2018-11-02T10:00:14.191Z,58.67
2018-11-02T10:01:14.181Z,57.40
2018-11-02T10:02:14.253Z,56.66
2018-11-02T10:03:14.153Z,56.15
2018-11-02T10:04:14.144Z,56.66
2018-11-02T10:05:14.133Z,55.72
2018-11-02T10:06:14.119Z,55.62
2018-11-02T10:07:14.114Z,55.12
2018-11-02T10:08:14.132Z,54.91
2018-11-02T10:09:14.204Z,55.32
2018-11-02T10:10:14.076Z,55.62
2018-11-02T10:11:14.064Z,55.12
2018-11-02T10:12:14.057Z,55.09
2018-11-02T10:13:14.043Z,54.68
2018-11-02T10:14:14.029Z,54.58
2018-11-02T10:15:14.030Z,54.08
2018-11-02T10:16:14.006Z,54.05
2018-11-02T10:17:13.995Z,54.15
2018-11-02T10:18:14.008Z,54.35
2018-11-02T10:19:13.971Z,53.75
2018-11-02T10:20:13.959Z,53.60
2018-11-02T10:21:13.949Z,53.29
2018-11-02T10:22:13.944Z,53.29
2018-11-02T10:23:13.927Z,53.90
2018-11-02T10:24:13.916Z,52.66
2018-11-02T10:25:13.909Z,52.36
2018-11-02T10:26:13.896Z,52.16
2018-11-02T10:27:13.883Z,51.55
2018-11-02T10:28:13.943Z,51.85
2018-11-02T10:29:13.863Z,52.76
2018-11-02T10:30:13.855Z,52.56
2018-11-02T10:31:13.839Z,52.33
2018-11-02T10:32:13.832Z,51.73
2018-11-02T10:33:13.821Z,51.78
2018-11-02T10:34:13.805Z,52.86
2018-11-02T10:35:13.845Z,53.09
2018-11-02T10:36:13.794Z,53.09
2018-11-02T10:37:13.775Z,53.32
2018-11-02T10:38:13.762Z,54.05
2018-11-02T10:39:13.751Z,54.13
2018-11-02T10:40:13.740Z,53.95
2018-11-02T10:41:13.735Z,53.95
2018-11-02T10:42:13.721Z,53.64
2018-11-02T10:43:13.707Z,53.77
2018-11-02T10:44:13.730Z,53.87
2018-11-02T10:45:13.689Z,53.85
2018-11-02T10:46:13.680Z,54.02
2018-11-02T10:47:13.666Z,54.15
2018-11-02T10:48:13.654Z,53.95
2018-11-02T10:49:13.701Z,53.75
2018-11-02T10:50:13.631Z,53.42
2018-11-02T10:51:13.633Z,53.82
2018-11-02T10:52:13.609Z,54.13
2018-11-02T10:53:13.597Z,53.39
2018-11-02T10:54:13.590Z,53.52
2018-11-02T10:55:13.579Z,53.62
2018-11-02T10:56:13.569Z,54.02
2018-11-02T10:57:13.557Z,53.95
2018-11-02T10:58:13.553Z,53.85
2018-11-02T10:59:13.531Z,54.15
2018-11-02T11:00:13.522Z,53.93
2018-11-02T11:01:13.584Z,52.76
2018-11-02T11:02:13.497Z,51.80
2018-11-02T11:03:13.488Z,50.52
2018-11-02T11:04:13.477Z,48.98
2018-11-02T11:05:13.495Z,48.78
2018-11-02T11:06:13.456Z,48.26
2018-11-02T11:07:13.443Z,48.33
2018-11-02T11:08:13.432Z,47.71
2018-11-02T11:09:13.421Z,47.97
2018-11-02T11:10:13.409Z,50.34
2018-11-02T11:11:13.398Z,50.49
2018-11-02T11:12:13.451Z,51.09
2018-11-02T11:13:13.816Z,51.83
2018-11-02T11:14:13.368Z,51.75
2018-11-02T11:15:13.354Z,51.73
2018-11-02T11:16:13.345Z,52.03
2018-11-02T11:17:13.334Z,51.83
2018-11-02T11:18:13.325Z,52.05
2018-11-02T11:19:13.312Z,52.86
2018-11-02T11:20:13.299Z,53.19
2018-11-02T11:21:13.321Z,52.99
2018-11-02T11:22:13.276Z,52.89
2018-11-02T11:23:13.264Z,53.07
2018-11-02T11:24:13.263Z,52.53
2018-11-02T11:25:13.246Z,52.00
2018-11-02T11:26:13.236Z,50.12
2018-11-02T11:27:13.219Z,50.01
2018-11-02T11:28:13.236Z,49.09
2018-11-02T11:29:13.232Z,50.12
2018-11-02T11:30:13.189Z,50.24
2018-11-02T11:31:13.174Z,50.87
2018-11-02T11:32:13.164Z,51.09
2018-11-02T11:33:13.182Z,51.20
2018-11-02T11:34:13.142Z,51.70
2018-11-02T11:35:13.132Z,50.87
2018-11-02T11:36:13.126Z,50.12
2018-11-02T11:37:13.113Z,48.55
2018-11-02T11:38:13.098Z,47.10
2018-11-02T11:39:13.093Z,47.30
2018-11-02T11:40:13.073Z,46.45
2018-11-02T11:41:13.064Z,45.93
2018-11-02T11:42:13.050Z,45.10
2018-11-02T11:43:13.042Z,45.10
2018-11-02T11:44:13.047Z,45.10
2018-11-02T11:45:13.018Z,45.73
2018-11-02T11:46:13.007Z,46.25
2018-11-02T11:47:12.995Z,46.58
2018-11-02T11:48:12.991Z,47.00
2018-11-02T11:49:12.989Z,47.40
2018-11-02T11:50:12.966Z,47.28
2018-11-02T11:51:12.953Z,46.47
2018-11-02T11:52:12.940Z,46.55
2018-11-02T11:53:12.933Z,46.43
2018-11-02T11:54:12.945Z,45.95
2018-11-02T11:55:12.907Z,45.62
2018-11-02T11:56:12.900Z,45.30
2018-11-02T11:57:12.885Z,45.10
2018-11-02T11:58:12.873Z,45.00
2018-11-02T11:59:12.863Z,45.18
2018-11-02T12:00:12.856Z,44.46
2018-11-02T12:01:12.846Z,44.34
2018-11-02T12:02:12.882Z,44.28
2018-11-02T12:03:12.818Z,45.42
2018-11-02T12:04:12.894Z,45.53
2018-11-02T12:05:12.799Z,45.14
2018-11-02T12:06:12.785Z,45.95
2018-11-02T12:07:12.777Z,45.95
2018-11-02T12:08:12.761Z,46.58
2018-11-02T12:09:12.760Z,46.58
2018-11-02T12:10:12.801Z,46.75
2018-11-02T12:11:12.728Z,46.45
2018-11-02T12:12:12.720Z,46.90
2018-11-02T12:13:12.709Z,47.33
2018-11-02T12:14:12.696Z,48.26
2018-11-02T12:15:12.684Z,49.18
2018-11-02T12:16:12.673Z,49.41
2018-11-02T12:17:12.660Z,49.81
2018-11-02T12:18:12.651Z,50.12
2018-11-02T12:19:12.638Z,49.92
2018-11-02T12:20:12.628Z,50.04
2018-11-02T12:21:12.624Z,50.42
2018-11-02T12:22:37.085Z,48.96
2018-11-02T12:23:37.072Z,47.79
2018-11-02T12:24:37.061Z,46.98
2018-11-02T12:25:37.048Z,46.66
2018-11-02T12:26:37.042Z,46.31
2018-11-02T12:27:37.028Z,45.38
2018-11-02T12:28:37.049Z,44.96
2018-11-02T12:29:37.007Z,44.36
2018-11-02T12:30:37.059Z,44.98
2018-11-02T12:31:36.981Z,45.20
2018-11-02T12:32:36.978Z,44.80
2018-11-02T12:33:36.958Z,45.12
2018-11-02T12:34:36.947Z,45.41
2018-11-02T12:35:36.936Z,45.48
2018-11-02T12:36:36.925Z,45.00
2018-11-02T12:37:36.918Z,44.60
2018-11-02T12:38:36.902Z,45.03
2018-11-02T12:39:36.892Z,45.73
2018-11-02T12:40:36.958Z,45.33
2018-11-02T12:41:36.873Z,45.42
2018-11-02T12:42:36.860Z,45.42
2018-11-02T12:43:37.060Z,45.55
2018-11-02T12:44:36.837Z,45.42
2018-11-02T12:45:36.826Z,45.22
2018-11-02T12:46:36.815Z,45.12
2018-11-02T12:47:36.819Z,46.38
2018-11-02T12:48:36.947Z,47.53
2018-11-02T12:49:37.260Z,48.26
2018-11-02T12:50:36.918Z,48.18
2018-11-02T12:51:36.759Z,49.10
2018-11-02T12:52:36.754Z,49.81